sensor_id;sensor_type;location;lat;lon;timestamp;P1;durP1;ratioP1;P2;durP2;ratioP2
24357;SDS011;13668;52.154;5.580;2022-10-16T00:01:14;5.55;;;2.33;;
24357;SDS011;13668;52.154;5.580;2022-10-16T00:03:40;4.38;;;2.50;;
24357;SDS011;13668;52.154;5.580;2022-10-16T00:06:06;6.40;;;2.75;;
24357;SDS011;13668;52.154;5.580;2022-10-16T00:08:33;4.32;;;3.35;;
24357;SDS011;13668;52.154;5.580;2022-10-16T00:11:00;5.60;;;3.45;;
24357;SDS011;13668;52.154;5.580;2022-10-16T00:13:26;10.23;;;3.00;;
24357;SDS011;13668;52.154;5.580;2022-10-16T00:15:54;8.30;;;3.78;;
24357;SDS011;13668;52.154;5.580;2022-10-16T00:18:20;6.97;;;3.10;;
24357;SDS011;13668;52.154;5.580;2022-10-16T00:20:46;7.35;;;4.20;;
24357;SDS011;13668;52.154;5.580;2022-10-16T00:23:12;6.32;;;3.45;;
24357;SDS011;13668;52.154;5.580;2022-10-16T00:25:38;6.20;;;3.30;;
24357;SDS011;13668;52.154;5.580;2022-10-16T00:28:04;7.32;;;3.92;;
24357;SDS011;13668;52.154;5.580;2022-10-16T00:30:29;3.30;;;3.00;;
24357;SDS011;13668;52.154;5.580;2022-10-16T00:32:56;6.55;;;3.35;;
24357;SDS011;13668;52.154;5.580;2022-10-16T00:35:22;5.97;;;2.95;;
24357;SDS011;13668;52.154;5.580;2022-10-16T00:37:48;3.88;;;2.47;;
24357;SDS011;13668;52.154;5.580;2022-10-16T00:40:14;6.03;;;2.70;;
24357;SDS011;13668;52.154;5.580;2022-10-16T00:42:40;4.57;;;2.67;;
24357;SDS011;13668;52.154;5.580;2022-10-16T00:45:06;2.70;;;2.50;;
24357;SDS011;13668;52.154;5.580;2022-10-16T00:47:34;3.53;;;3.22;;
24357;SDS011;13668;52.154;5.580;2022-10-16T00:50:16;4.82;;;2.83;;
24357;SDS011;13668;52.154;5.580;2022-10-16T00:52:45;3.92;;;2.67;;
24357;SDS011;13668;52.154;5.580;2022-10-16T00:55:12;6.25;;;2.70;;
24357;SDS011;13668;52.154;5.580;2022-10-16T00:57:38;3.83;;;2.60;;
24357;SDS011;13668;52.154;5.580;2022-10-16T01:00:05;3.53;;;3.05;;
24357;SDS011;13668;52.154;5.580;2022-10-16T01:02:31;3.80;;;3.05;;
24357;SDS011;13668;52.154;5.580;2022-10-16T01:04:57;2.80;;;2.60;;
24357;SDS011;13668;52.154;5.580;2022-10-16T01:10:23;5.75;;;3.20;;
24357;SDS011;13668;52.154;5.580;2022-10-16T01:12:59;4.05;;;2.78;;
24357;SDS011;13668;52.154;5.580;2022-10-16T01:15:27;4.13;;;2.80;;
24357;SDS011;13668;52.154;5.580;2022-10-16T01:18:11;6.68;;;2.85;;
24357;SDS011;13668;52.154;5.580;2022-10-16T01:21:13;3.53;;;2.50;;
24357;SDS011;13668;52.154;5.580;2022-10-16T01:23:36;3.97;;;2.60;;
24357;SDS011;13668;52.154;5.580;2022-10-16T01:28:34;3.40;;;2.90;;
24357;SDS011;13668;52.154;5.580;2022-10-16T01:31:02;3.55;;;2.75;;
24357;SDS011;13668;52.154;5.580;2022-10-16T01:33:30;7.30;;;2.50;;
24357;SDS011;13668;52.154;5.580;2022-10-16T01:36:01;2.85;;;2.47;;
24357;SDS011;13668;52.154;5.580;2022-10-16T01:38:30;5.47;;;2.58;;
24357;SDS011;13668;52.154;5.580;2022-10-16T01:40:58;4.50;;;2.42;;
24357;SDS011;13668;52.154;5.580;2022-10-16T01:43:31;3.53;;;2.47;;
24357;SDS011;13668;52.154;5.580;2022-10-16T01:45:58;7.50;;;3.08;;
24357;SDS011;13668;52.154;5.580;2022-10-16T01:48:25;3.10;;;2.60;;
24357;SDS011;13668;52.154;5.580;2022-10-16T01:50:55;5.45;;;2.85;;
24357;SDS011;13668;52.154;5.580;2022-10-16T01:53:22;3.20;;;2.67;;
24357;SDS011;13668;52.154;5.580;2022-10-16T01:55:49;4.40;;;2.58;;
24357;SDS011;13668;52.154;5.580;2022-10-16T01:58:16;4.07;;;2.58;;
24357;SDS011;13668;52.154;5.580;2022-10-16T02:00:43;4.18;;;2.40;;
24357;SDS011;13668;52.154;5.580;2022-10-16T02:03:10;4.65;;;2.67;;
24357;SDS011;13668;52.154;5.580;2022-10-16T02:05:38;4.22;;;2.63;;
24357;SDS011;13668;52.154;5.580;2022-10-16T02:08:04;4.57;;;2.83;;
24357;SDS011;13668;52.154;5.580;2022-10-16T02:10:30;5.20;;;2.95;;
24357;SDS011;13668;52.154;5.580;2022-10-16T02:12:59;3.83;;;2.90;;
24357;SDS011;13668;52.154;5.580;2022-10-16T02:15:26;4.28;;;2.50;;
24357;SDS011;13668;52.154;5.580;2022-10-16T02:17:52;2.75;;;2.38;;
24357;SDS011;13668;52.154;5.580;2022-10-16T02:20:19;4.28;;;2.90;;
24357;SDS011;13668;52.154;5.580;2022-10-16T02:22:48;3.70;;;2.83;;
24357;SDS011;13668;52.154;5.580;2022-10-16T02:25:24;3.00;;;2.78;;
24357;SDS011;13668;52.154;5.580;2022-10-16T02:28:01;2.90;;;2.63;;
24357;SDS011;13668;52.154;5.580;2022-10-16T02:30:29;3.13;;;2.80;;
24357;SDS011;13668;52.154;5.580;2022-10-16T02:32:56;3.08;;;2.70;;
24357;SDS011;13668;52.154;5.580;2022-10-16T02:35:24;3.58;;;2.92;;
24357;SDS011;13668;52.154;5.580;2022-10-16T02:37:52;2.90;;;2.60;;
24357;SDS011;13668;52.154;5.580;2022-10-16T02:40:18;2.75;;;2.53;;
24357;SDS011;13668;52.154;5.580;2022-10-16T02:42:44;3.90;;;2.85;;
24357;SDS011;13668;52.154;5.580;2022-10-16T02:45:10;7.05;;;3.67;;
24357;SDS011;13668;52.154;5.580;2022-10-16T02:47:37;3.65;;;2.95;;
24357;SDS011;13668;52.154;5.580;2022-10-16T02:50:03;3.35;;;2.63;;
24357;SDS011;13668;52.154;5.580;2022-10-16T02:52:29;3.83;;;3.00;;
24357;SDS011;13668;52.154;5.580;2022-10-16T02:54:55;4.30;;;2.85;;
24357;SDS011;13668;52.154;5.580;2022-10-16T02:57:21;4.60;;;2.60;;
24357;SDS011;13668;52.154;5.580;2022-10-16T02:59:47;3.00;;;2.42;;
24357;SDS011;13668;52.154;5.580;2022-10-16T03:02:13;4.55;;;2.50;;
24357;SDS011;13668;52.154;5.580;2022-10-16T03:04:39;3.42;;;2.63;;
24357;SDS011;13668;52.154;5.580;2022-10-16T03:07:05;4.30;;;2.58;;
24357;SDS011;13668;52.154;5.580;2022-10-16T03:09:31;2.60;;;2.40;;
24357;SDS011;13668;52.154;5.580;2022-10-16T03:11:57;2.90;;;2.38;;
24357;SDS011;13668;52.154;5.580;2022-10-16T03:14:23;4.85;;;2.97;;
24357;SDS011;13668;52.154;5.580;2022-10-16T03:16:49;3.97;;;3.03;;
24357;SDS011;13668;52.154;5.580;2022-10-16T03:19:18;4.93;;;2.90;;
24357;SDS011;13668;52.154;5.580;2022-10-16T03:21:44;2.58;;;2.20;;
24357;SDS011;13668;52.154;5.580;2022-10-16T03:24:10;6.30;;;2.78;;
24357;SDS011;13668;52.154;5.580;2022-10-16T03:26:36;3.80;;;2.70;;
24357;SDS011;13668;52.154;5.580;2022-10-16T03:29:02;4.00;;;2.50;;
24357;SDS011;13668;52.154;5.580;2022-10-16T03:31:29;3.17;;;2.85;;
24357;SDS011;13668;52.154;5.580;2022-10-16T03:33:55;4.90;;;2.78;;
24357;SDS011;13668;52.154;5.580;2022-10-16T03:36:21;3.90;;;2.83;;
24357;SDS011;13668;52.154;5.580;2022-10-16T03:38:47;4.32;;;3.25;;
24357;SDS011;13668;52.154;5.580;2022-10-16T03:41:13;3.92;;;2.65;;
24357;SDS011;13668;52.154;5.580;2022-10-16T03:43:39;3.30;;;3.00;;
24357;SDS011;13668;52.154;5.580;2022-10-16T03:46:05;4.07;;;2.83;;
24357;SDS011;13668;52.154;5.580;2022-10-16T03:48:31;5.32;;;3.17;;
24357;SDS011;13668;52.154;5.580;2022-10-16T03:50:57;3.08;;;2.78;;
24357;SDS011;13668;52.154;5.580;2022-10-16T03:53:24;2.88;;;2.63;;
24357;SDS011;13668;52.154;5.580;2022-10-16T03:55:50;4.45;;;3.03;;
24357;SDS011;13668;52.154;5.580;2022-10-16T03:58:16;3.45;;;2.65;;
24357;SDS011;13668;52.154;5.580;2022-10-16T04:00:42;3.40;;;2.85;;
24357;SDS011;13668;52.154;5.580;2022-10-16T04:03:08;4.43;;;2.75;;
24357;SDS011;13668;52.154;5.580;2022-10-16T04:05:34;3.50;;;2.67;;
24357;SDS011;13668;52.154;5.580;2022-10-16T04:08:00;2.35;;;2.10;;
24357;SDS011;13668;52.154;5.580;2022-10-16T04:10:26;2.90;;;2.55;;
24357;SDS011;13668;52.154;5.580;2022-10-16T04:12:52;2.53;;;2.10;;
24357;SDS011;13668;52.154;5.580;2022-10-16T04:15:21;4.95;;;2.38;;
24357;SDS011;13668;52.154;5.580;2022-10-16T04:17:47;2.47;;;2.28;;
24357;SDS011;13668;52.154;5.580;2022-10-16T04:20:13;2.67;;;2.30;;
24357;SDS011;13668;52.154;5.580;2022-10-16T04:22:38;3.08;;;2.42;;
24357;SDS011;13668;52.154;5.580;2022-10-16T04:25:04;2.45;;;2.25;;
24357;SDS011;13668;52.154;5.580;2022-10-16T04:27:30;4.05;;;2.10;;
24357;SDS011;13668;52.154;5.580;2022-10-16T04:29:57;4.15;;;2.08;;
24357;SDS011;13668;52.154;5.580;2022-10-16T04:32:23;2.30;;;1.80;;
24357;SDS011;13668;52.154;5.580;2022-10-16T04:34:49;3.25;;;2.10;;
24357;SDS011;13668;52.154;5.580;2022-10-16T04:37:15;2.83;;;2.25;;
24357;SDS011;13668;52.154;5.580;2022-10-16T04:39:41;3.30;;;2.15;;
24357;SDS011;13668;52.154;5.580;2022-10-16T04:42:07;3.05;;;2.28;;
24357;SDS011;13668;52.154;5.580;2022-10-16T04:44:33;4.35;;;2.90;;
24357;SDS011;13668;52.154;5.580;2022-10-16T04:46:58;2.67;;;2.35;;
24357;SDS011;13668;52.154;5.580;2022-10-16T04:49:24;7.68;;;3.28;;
24357;SDS011;13668;52.154;5.580;2022-10-16T04:51:50;4.28;;;2.17;;
24357;SDS011;13668;52.154;5.580;2022-10-16T04:54:16;4.88;;;2.17;;
24357;SDS011;13668;52.154;5.580;2022-10-16T04:56:42;4.18;;;2.72;;
24357;SDS011;13668;52.154;5.580;2022-10-16T04:59:12;2.42;;;2.22;;
24357;SDS011;13668;52.154;5.580;2022-10-16T05:01:38;3.00;;;2.28;;
24357;SDS011;13668;52.154;5.580;2022-10-16T05:04:04;6.25;;;3.03;;
24357;SDS011;13668;52.154;5.580;2022-10-16T05:06:30;3.05;;;2.35;;
24357;SDS011;13668;52.154;5.580;2022-10-16T05:08:56;4.30;;;2.60;;
24357;SDS011;13668;52.154;5.580;2022-10-16T05:11:22;2.95;;;2.55;;
24357;SDS011;13668;52.154;5.580;2022-10-16T05:13:48;4.88;;;2.30;;
24357;SDS011;13668;52.154;5.580;2022-10-16T05:16:14;3.03;;;2.40;;
24357;SDS011;13668;52.154;5.580;2022-10-16T05:18:40;4.10;;;2.78;;
24357;SDS011;13668;52.154;5.580;2022-10-16T05:21:06;4.60;;;2.30;;
24357;SDS011;13668;52.154;5.580;2022-10-16T05:23:32;2.45;;;2.20;;
24357;SDS011;13668;52.154;5.580;2022-10-16T05:25:58;3.63;;;2.33;;
24357;SDS011;13668;52.154;5.580;2022-10-16T05:28:25;5.30;;;2.70;;
24357;SDS011;13668;52.154;5.580;2022-10-16T05:30:52;3.97;;;2.22;;
24357;SDS011;13668;52.154;5.580;2022-10-16T05:33:19;4.13;;;2.90;;
24357;SDS011;13668;52.154;5.580;2022-10-16T05:35:45;4.05;;;3.17;;
24357;SDS011;13668;52.154;5.580;2022-10-16T05:38:11;5.05;;;3.55;;
24357;SDS011;13668;52.154;5.580;2022-10-16T05:40:37;5.30;;;3.50;;
24357;SDS011;13668;52.154;5.580;2022-10-16T05:43:04;5.70;;;4.57;;
24357;SDS011;13668;52.154;5.580;2022-10-16T05:45:30;6.03;;;3.88;;
24357;SDS011;13668;52.154;5.580;2022-10-16T05:47:56;5.72;;;3.97;;
24357;SDS011;13668;52.154;5.580;2022-10-16T05:50:22;5.22;;;4.13;;
24357;SDS011;13668;52.154;5.580;2022-10-16T05:52:47;5.43;;;4.88;;
24357;SDS011;13668;52.154;5.580;2022-10-16T05:55:13;6.20;;;5.25;;
24357;SDS011;13668;52.154;5.580;2022-10-16T05:57:40;6.90;;;4.80;;
24357;SDS011;13668;52.154;5.580;2022-10-16T06:00:06;6.82;;;5.45;;
24357;SDS011;13668;52.154;5.580;2022-10-16T06:02:32;7.50;;;5.40;;
24357;SDS011;13668;52.154;5.580;2022-10-16T06:04:58;8.48;;;5.40;;
24357;SDS011;13668;52.154;5.580;2022-10-16T06:07:24;6.05;;;5.47;;
24357;SDS011;13668;52.154;5.580;2022-10-16T06:09:50;7.28;;;5.55;;
24357;SDS011;13668;52.154;5.580;2022-10-16T06:12:16;7.03;;;5.65;;
24357;SDS011;13668;52.154;5.580;2022-10-16T06:14:42;7.68;;;5.82;;
24357;SDS011;13668;52.154;5.580;2022-10-16T06:17:08;6.18;;;5.30;;
24357;SDS011;13668;52.154;5.580;2022-10-16T06:19:34;8.52;;;5.75;;
24357;SDS011;13668;52.154;5.580;2022-10-16T06:22:00;8.07;;;5.20;;
24357;SDS011;13668;52.154;5.580;2022-10-16T06:24:27;8.70;;;5.18;;
24357;SDS011;13668;52.154;5.580;2022-10-16T06:26:53;9.98;;;5.22;;
24357;SDS011;13668;52.154;5.580;2022-10-16T06:29:19;5.75;;;5.15;;
24357;SDS011;13668;52.154;5.580;2022-10-16T06:31:45;7.72;;;4.80;;
24357;SDS011;13668;52.154;5.580;2022-10-16T06:34:11;6.78;;;4.90;;
24357;SDS011;13668;52.154;5.580;2022-10-16T06:36:37;5.25;;;4.45;;
24357;SDS011;13668;52.154;5.580;2022-10-16T06:39:04;5.25;;;4.60;;
24357;SDS011;13668;52.154;5.580;2022-10-16T06:41:32;6.47;;;5.22;;
24357;SDS011;13668;52.154;5.580;2022-10-16T06:43:58;5.47;;;4.43;;
24357;SDS011;13668;52.154;5.580;2022-10-16T06:46:25;7.05;;;4.53;;
24357;SDS011;13668;52.154;5.580;2022-10-16T06:48:52;5.30;;;4.32;;
24357;SDS011;13668;52.154;5.580;2022-10-16T06:51:19;5.40;;;4.05;;
24357;SDS011;13668;52.154;5.580;2022-10-16T06:53:46;6.13;;;3.65;;
24357;SDS011;13668;52.154;5.580;2022-10-16T06:56:24;3.90;;;3.30;;
24357;SDS011;13668;52.154;5.580;2022-10-16T06:58:50;5.75;;;4.07;;
24357;SDS011;13668;52.154;5.580;2022-10-16T07:01:17;5.85;;;3.30;;
24357;SDS011;13668;52.154;5.580;2022-10-16T07:03:44;3.55;;;3.25;;
24357;SDS011;13668;52.154;5.580;2022-10-16T07:06:11;6.07;;;3.60;;
24357;SDS011;13668;52.154;5.580;2022-10-16T07:08:38;4.32;;;3.30;;
24357;SDS011;13668;52.154;5.580;2022-10-16T07:11:05;7.03;;;3.42;;
24357;SDS011;13668;52.154;5.580;2022-10-16T07:13:35;4.53;;;3.35;;
24357;SDS011;13668;52.154;5.580;2022-10-16T07:16:11;6.75;;;3.30;;
24357;SDS011;13668;52.154;5.580;2022-10-16T07:18:38;3.67;;;2.70;;
24357;SDS011;13668;52.154;5.580;2022-10-16T07:21:06;5.55;;;2.90;;
24357;SDS011;13668;52.154;5.580;2022-10-16T07:23:32;4.68;;;3.15;;
24357;SDS011;13668;52.154;5.580;2022-10-16T07:25:58;3.53;;;2.50;;
24357;SDS011;13668;52.154;5.580;2022-10-16T07:28:24;4.45;;;3.38;;
24357;SDS011;13668;52.154;5.580;2022-10-16T07:30:50;5.28;;;2.85;;
24357;SDS011;13668;52.154;5.580;2022-10-16T07:33:16;5.18;;;2.85;;
24357;SDS011;13668;52.154;5.580;2022-10-16T07:35:51;3.10;;;2.63;;
24357;SDS011;13668;52.154;5.580;2022-10-16T07:38:18;4.35;;;2.22;;
24357;SDS011;13668;52.154;5.580;2022-10-16T07:40:44;4.50;;;2.38;;
24357;SDS011;13668;52.154;5.580;2022-10-16T07:43:10;5.70;;;2.47;;
24357;SDS011;13668;52.154;5.580;2022-10-16T07:45:36;5.03;;;2.30;;
24357;SDS011;13668;52.154;5.580;2022-10-16T07:48:02;4.70;;;3.13;;
24357;SDS011;13668;52.154;5.580;2022-10-16T07:50:28;3.95;;;2.70;;
24357;SDS011;13668;52.154;5.580;2022-10-16T07:52:54;4.18;;;2.50;;
24357;SDS011;13668;52.154;5.580;2022-10-16T07:55:20;4.47;;;2.42;;
24357;SDS011;13668;52.154;5.580;2022-10-16T07:57:46;4.68;;;1.92;;
24357;SDS011;13668;52.154;5.580;2022-10-16T08:00:12;3.63;;;2.25;;
24357;SDS011;13668;52.154;5.580;2022-10-16T08:02:42;4.07;;;2.47;;
24357;SDS011;13668;52.154;5.580;2022-10-16T08:05:08;3.83;;;2.60;;
24357;SDS011;13668;52.154;5.580;2022-10-16T08:07:34;4.28;;;2.40;;
24357;SDS011;13668;52.154;5.580;2022-10-16T08:09:59;5.70;;;2.90;;
24357;SDS011;13668;52.154;5.580;2022-10-16T08:12:25;4.65;;;2.50;;
24357;SDS011;13668;52.154;5.580;2022-10-16T08:14:51;4.50;;;2.65;;
24357;SDS011;13668;52.154;5.580;2022-10-16T08:17:17;2.60;;;2.40;;
24357;SDS011;13668;52.154;5.580;2022-10-16T08:19:44;5.50;;;2.95;;
24357;SDS011;13668;52.154;5.580;2022-10-16T08:22:10;4.47;;;2.88;;
24357;SDS011;13668;52.154;5.580;2022-10-16T08:24:36;4.82;;;2.58;;
24357;SDS011;13668;52.154;5.580;2022-10-16T08:27:02;5.40;;;3.20;;
24357;SDS011;13668;52.154;5.580;2022-10-16T08:29:28;3.28;;;2.85;;
24357;SDS011;13668;52.154;5.580;2022-10-16T08:31:54;5.93;;;2.85;;
24357;SDS011;13668;52.154;5.580;2022-10-16T08:34:20;4.50;;;2.72;;
24357;SDS011;13668;52.154;5.580;2022-10-16T08:36:46;4.28;;;2.63;;
24357;SDS011;13668;52.154;5.580;2022-10-16T08:39:12;3.38;;;2.55;;
24357;SDS011;13668;52.154;5.580;2022-10-16T08:41:54;6.43;;;3.17;;
24357;SDS011;13668;52.154;5.580;2022-10-16T08:47:02;5.25;;;2.78;;
24357;SDS011;13668;52.154;5.580;2022-10-16T08:49:30;4.38;;;2.92;;
24357;SDS011;13668;52.154;5.580;2022-10-16T08:51:57;3.13;;;2.70;;
24357;SDS011;13668;52.154;5.580;2022-10-16T08:54:36;3.50;;;2.58;;
24357;SDS011;13668;52.154;5.580;2022-10-16T08:57:17;5.50;;;2.50;;
24357;SDS011;13668;52.154;5.580;2022-10-16T08:59:45;4.72;;;2.47;;
24357;SDS011;13668;52.154;5.580;2022-10-16T09:07:27;4.00;;;2.00;;
24357;SDS011;13668;52.154;5.580;2022-10-16T09:17:41;5.22;;;1.80;;
24357;SDS011;13668;52.154;5.580;2022-10-16T09:22:38;5.10;;;2.00;;
24357;SDS011;13668;52.154;5.580;2022-10-16T09:25:12;5.35;;;2.55;;
24357;SDS011;13668;52.154;5.580;2022-10-16T09:27:38;9.63;;;1.90;;
24357;SDS011;13668;52.154;5.580;2022-10-16T09:30:12;4.70;;;1.75;;
24357;SDS011;13668;52.154;5.580;2022-10-16T09:32:38;9.35;;;2.42;;
24357;SDS011;13668;52.154;5.580;2022-10-16T09:35:09;7.20;;;1.70;;
24357;SDS011;13668;52.154;5.580;2022-10-16T09:37:36;7.07;;;1.58;;
24357;SDS011;13668;52.154;5.580;2022-10-16T09:40:02;9.15;;;1.85;;
24357;SDS011;13668;52.154;5.580;2022-10-16T09:42:32;7.80;;;1.73;;
24357;SDS011;13668;52.154;5.580;2022-10-16T09:44:59;5.05;;;1.83;;
24357;SDS011;13668;52.154;5.580;2022-10-16T09:47:25;5.82;;;1.50;;
24357;SDS011;13668;52.154;5.580;2022-10-16T09:49:59;6.63;;;2.05;;
24357;SDS011;13668;52.154;5.580;2022-10-16T09:52:27;6.03;;;1.67;;
24357;SDS011;13668;52.154;5.580;2022-10-16T09:57:20;4.97;;;1.90;;
24357;SDS011;13668;52.154;5.580;2022-10-16T09:59:56;6.57;;;1.50;;
24357;SDS011;13668;52.154;5.580;2022-10-16T10:02:35;6.05;;;2.13;;
24357;SDS011;13668;52.154;5.580;2022-10-16T10:05:04;4.55;;;1.63;;
24357;SDS011;13668;52.154;5.580;2022-10-16T10:07:30;6.68;;;1.83;;
24357;SDS011;13668;52.154;5.580;2022-10-16T10:09:59;6.85;;;2.13;;
24357;SDS011;13668;52.154;5.580;2022-10-16T10:12:26;4.40;;;2.15;;
24357;SDS011;13668;52.154;5.580;2022-10-16T10:14:53;8.10;;;2.15;;
24357;SDS011;13668;52.154;5.580;2022-10-16T10:17:22;4.55;;;1.73;;
24357;SDS011;13668;52.154;5.580;2022-10-16T10:27:21;6.53;;;1.90;;
24357;SDS011;13668;52.154;5.580;2022-10-16T10:29:54;4.75;;;1.88;;
24357;SDS011;13668;52.154;5.580;2022-10-16T10:39:48;6.75;;;2.28;;
24357;SDS011;13668;52.154;5.580;2022-10-16T10:42:22;7.32;;;1.80;;
24357;SDS011;13668;52.154;5.580;2022-10-16T10:47:32;5.63;;;1.70;;
24357;SDS011;13668;52.154;5.580;2022-10-16T10:55:17;6.30;;;2.05;;
24357;SDS011;13668;52.154;5.580;2022-10-16T11:08:17;9.00;;;2.30;;
24357;SDS011;13668;52.154;5.580;2022-10-16T11:10:46;8.40;;;2.67;;
24357;SDS011;13668;52.154;5.580;2022-10-16T11:13:20;8.60;;;1.90;;
24357;SDS011;13668;52.154;5.580;2022-10-16T11:15:47;9.23;;;1.80;;
24357;SDS011;13668;52.154;5.580;2022-10-16T11:18:32;6.10;;;1.75;;
24357;SDS011;13668;52.154;5.580;2022-10-16T11:21:02;6.07;;;1.80;;
24357;SDS011;13668;52.154;5.580;2022-10-16T11:23:42;6.90;;;1.88;;
24357;SDS011;13668;52.154;5.580;2022-10-16T11:26:11;8.55;;;2.28;;
24357;SDS011;13668;52.154;5.580;2022-10-16T11:28:41;5.63;;;1.73;;
24357;SDS011;13668;52.154;5.580;2022-10-16T11:31:17;7.32;;;1.40;;
24357;SDS011;13668;52.154;5.580;2022-10-16T11:36:25;11.30;;;1.92;;
24357;SDS011;13668;52.154;5.580;2022-10-16T11:41:45;7.60;;;1.80;;
24357;SDS011;13668;52.154;5.580;2022-10-16T11:44:19;8.13;;;1.42;;
24357;SDS011;13668;52.154;5.580;2022-10-16T11:46:48;11.60;;;2.40;;
24357;SDS011;13668;52.154;5.580;2022-10-16T11:49:18;10.90;;;2.03;;
24357;SDS011;13668;52.154;5.580;2022-10-16T11:56:59;5.47;;;1.67;;
24357;SDS011;13668;52.154;5.580;2022-10-16T11:59:32;9.25;;;1.77;;
24357;SDS011;13668;52.154;5.580;2022-10-16T12:04:34;8.65;;;1.55;;
24357;SDS011;13668;52.154;5.580;2022-10-16T12:07:05;3.88;;;1.30;;
24357;SDS011;13668;52.154;5.580;2022-10-16T12:09:36;6.40;;;1.73;;
24357;SDS011;13668;52.154;5.580;2022-10-16T12:12:03;4.80;;;1.55;;
24357;SDS011;13668;52.154;5.580;2022-10-16T12:19:28;6.30;;;1.40;;
24357;SDS011;13668;52.154;5.580;2022-10-16T12:21:56;7.22;;;1.85;;
24357;SDS011;13668;52.154;5.580;2022-10-16T12:24:38;9.45;;;2.03;;
24357;SDS011;13668;52.154;5.580;2022-10-16T12:27:23;4.28;;;1.10;;
24357;SDS011;13668;52.154;5.580;2022-10-16T12:29:53;7.18;;;1.30;;
24357;SDS011;13668;52.154;5.580;2022-10-16T12:34:59;6.85;;;1.60;;
24357;SDS011;13668;52.154;5.580;2022-10-16T12:37:26;7.35;;;1.45;;
24357;SDS011;13668;52.154;5.580;2022-10-16T12:39:53;5.60;;;1.80;;
24357;SDS011;13668;52.154;5.580;2022-10-16T12:42:31;7.20;;;1.50;;
24357;SDS011;13668;52.154;5.580;2022-10-16T12:44:58;6.63;;;1.50;;
24357;SDS011;13668;52.154;5.580;2022-10-16T12:49:59;8.10;;;1.45;;
24357;SDS011;13668;52.154;5.580;2022-10-16T12:52:35;5.07;;;1.15;;
24357;SDS011;13668;52.154;5.580;2022-10-16T12:55:02;7.55;;;1.50;;
24357;SDS011;13668;52.154;5.580;2022-10-16T12:57:38;8.15;;;1.50;;
24357;SDS011;13668;52.154;5.580;2022-10-16T13:02:53;5.43;;;1.55;;
24357;SDS011;13668;52.154;5.580;2022-10-16T13:10:47;5.35;;;1.38;;
24357;SDS011;13668;52.154;5.580;2022-10-16T13:13:39;6.22;;;1.73;;
24357;SDS011;13668;52.154;5.580;2022-10-16T13:16:16;5.68;;;1.52;;
24357;SDS011;13668;52.154;5.580;2022-10-16T13:21:31;4.43;;;1.42;;
24357;SDS011;13668;52.154;5.580;2022-10-16T13:29:13;5.82;;;1.50;;
24357;SDS011;13668;52.154;5.580;2022-10-16T13:31:39;11.95;;;1.88;;
24357;SDS011;13668;52.154;5.580;2022-10-16T13:34:05;6.05;;;1.17;;
24357;SDS011;13668;52.154;5.580;2022-10-16T13:36:44;9.02;;;2.03;;
24357;SDS011;13668;52.154;5.580;2022-10-16T13:39:11;6.97;;;1.90;;
24357;SDS011;13668;52.154;5.580;2022-10-16T13:41:38;6.90;;;1.50;;
24357;SDS011;13668;52.154;5.580;2022-10-16T13:44:04;5.00;;;1.92;;
24357;SDS011;13668;52.154;5.580;2022-10-16T13:46:30;9.50;;;1.98;;
24357;SDS011;13668;52.154;5.580;2022-10-16T13:49:00;7.88;;;1.45;;
24357;SDS011;13668;52.154;5.580;2022-10-16T13:51:27;10.15;;;2.45;;
24357;SDS011;13668;52.154;5.580;2022-10-16T13:53:54;8.15;;;1.73;;
24357;SDS011;13668;52.154;5.580;2022-10-16T13:56:22;7.45;;;2.08;;
24357;SDS011;13668;52.154;5.580;2022-10-16T13:59:01;5.38;;;1.77;;
24357;SDS011;13668;52.154;5.580;2022-10-16T14:01:31;6.47;;;1.60;;
24357;SDS011;13668;52.154;5.580;2022-10-16T14:04:00;5.38;;;1.77;;
24357;SDS011;13668;52.154;5.580;2022-10-16T14:06:27;4.22;;;1.77;;
24357;SDS011;13668;52.154;5.580;2022-10-16T14:08:59;5.10;;;1.30;;
24357;SDS011;13668;52.154;5.580;2022-10-16T14:11:25;7.82;;;1.58;;
24357;SDS011;13668;52.154;5.580;2022-10-16T14:13:51;7.95;;;1.88;;
24357;SDS011;13668;52.154;5.580;2022-10-16T14:16:19;5.18;;;1.48;;
24357;SDS011;13668;52.154;5.580;2022-10-16T14:18:46;4.18;;;1.30;;
24357;SDS011;13668;52.154;5.580;2022-10-16T14:21:16;5.78;;;1.50;;
24357;SDS011;13668;52.154;5.580;2022-10-16T14:23:42;6.40;;;2.03;;
24357;SDS011;13668;52.154;5.580;2022-10-16T14:28:35;5.70;;;1.40;;
24357;SDS011;13668;52.154;5.580;2022-10-16T14:31:02;9.00;;;2.05;;
24357;SDS011;13668;52.154;5.580;2022-10-16T14:36:04;7.43;;;2.00;;
24357;SDS011;13668;52.154;5.580;2022-10-16T14:38:31;8.30;;;1.70;;
24357;SDS011;13668;52.154;5.580;2022-10-16T14:40:58;7.85;;;1.80;;
24357;SDS011;13668;52.154;5.580;2022-10-16T14:43:34;7.90;;;1.80;;
24357;SDS011;13668;52.154;5.580;2022-10-16T14:46:27;11.18;;;2.00;;
24357;SDS011;13668;52.154;5.580;2022-10-16T14:48:51;9.48;;;2.17;;
24357;SDS011;13668;52.154;5.580;2022-10-16T14:51:19;6.32;;;1.70;;
24357;SDS011;13668;52.154;5.580;2022-10-16T14:53:46;12.57;;;2.25;;
24357;SDS011;13668;52.154;5.580;2022-10-16T14:56:14;9.07;;;1.85;;
24357;SDS011;13668;52.154;5.580;2022-10-16T14:58:41;10.88;;;1.95;;
24357;SDS011;13668;52.154;5.580;2022-10-16T15:01:08;7.15;;;1.92;;
24357;SDS011;13668;52.154;5.580;2022-10-16T15:03:36;5.88;;;1.90;;
24357;SDS011;13668;52.154;5.580;2022-10-16T15:06:02;7.45;;;1.90;;
24357;SDS011;13668;52.154;5.580;2022-10-16T15:08:28;9.93;;;1.73;;
24357;SDS011;13668;52.154;5.580;2022-10-16T15:10:54;7.65;;;2.25;;
24357;SDS011;13668;52.154;5.580;2022-10-16T15:13:20;9.43;;;2.25;;
24357;SDS011;13668;52.154;5.580;2022-10-16T15:15:47;8.57;;;1.85;;
24357;SDS011;13668;52.154;5.580;2022-10-16T15:18:14;10.98;;;2.22;;
24357;SDS011;13668;52.154;5.580;2022-10-16T15:20:45;5.85;;;1.50;;
24357;SDS011;13668;52.154;5.580;2022-10-16T15:23:15;7.05;;;1.90;;
24357;SDS011;13668;52.154;5.580;2022-10-16T15:25:42;8.90;;;1.92;;
24357;SDS011;13668;52.154;5.580;2022-10-16T15:28:09;7.32;;;1.60;;
24357;SDS011;13668;52.154;5.580;2022-10-16T15:30:35;6.57;;;2.22;;
24357;SDS011;13668;52.154;5.580;2022-10-16T15:33:02;9.15;;;2.00;;
24357;SDS011;13668;52.154;5.580;2022-10-16T15:35:29;4.75;;;2.22;;
24357;SDS011;13668;52.154;5.580;2022-10-16T15:37:55;9.43;;;1.80;;
24357;SDS011;13668;52.154;5.580;2022-10-16T15:40:21;6.30;;;1.80;;
24357;SDS011;13668;52.154;5.580;2022-10-16T15:42:47;13.18;;;2.38;;
24357;SDS011;13668;52.154;5.580;2022-10-16T15:45:14;4.80;;;1.80;;
24357;SDS011;13668;52.154;5.580;2022-10-16T15:47:40;7.13;;;1.80;;
24357;SDS011;13668;52.154;5.580;2022-10-16T15:50:06;4.03;;;1.60;;
24357;SDS011;13668;52.154;5.580;2022-10-16T15:52:32;6.90;;;2.10;;
24357;SDS011;13668;52.154;5.580;2022-10-16T15:54:58;10.52;;;2.22;;
24357;SDS011;13668;52.154;5.580;2022-10-16T15:57:24;4.13;;;1.38;;
24357;SDS011;13668;52.154;5.580;2022-10-16T15:59:50;7.18;;;1.90;;
24357;SDS011;13668;52.154;5.580;2022-10-16T16:02:16;4.57;;;1.48;;
24357;SDS011;13668;52.154;5.580;2022-10-16T16:04:42;6.05;;;1.63;;
24357;SDS011;13668;52.154;5.580;2022-10-16T16:07:08;7.25;;;1.70;;
24357;SDS011;13668;52.154;5.580;2022-10-16T16:09:34;5.38;;;1.50;;
24357;SDS011;13668;52.154;5.580;2022-10-16T16:12:01;9.23;;;2.05;;
24357;SDS011;13668;52.154;5.580;2022-10-16T16:14:27;6.63;;;1.67;;
24357;SDS011;13668;52.154;5.580;2022-10-16T16:16:54;7.53;;;1.80;;
24357;SDS011;13668;52.154;5.580;2022-10-16T16:19:20;10.05;;;2.05;;
24357;SDS011;13668;52.154;5.580;2022-10-16T16:21:47;3.70;;;1.55;;
24357;SDS011;13668;52.154;5.580;2022-10-16T16:24:13;9.25;;;2.30;;
24357;SDS011;13668;52.154;5.580;2022-10-16T16:26:39;6.50;;;2.00;;
24357;SDS011;13668;52.154;5.580;2022-10-16T16:29:08;7.20;;;2.03;;
24357;SDS011;13668;52.154;5.580;2022-10-16T16:31:34;9.57;;;2.30;;
24357;SDS011;13668;52.154;5.580;2022-10-16T16:34:00;8.77;;;2.65;;
24357;SDS011;13668;52.154;5.580;2022-10-16T16:36:29;8.70;;;2.50;;